Aeroporto :
LOGIN :

Iscrizione | Disclaimer

   EN    FR    IT 

 










Sommario :    VFR   VFR Marginale   IFR   IFR Intensivo   IFR Molto Intensivo
Visibilità : 
Base nubi : 
>= 8 km
>= 3000ft
5 / 8 km
1000 / 3000 ft
1500m / 5 km
500 / 1000 ft
800 / 1500m
200 / 500 ft
< 800m
< 200 ft
Simboli :   Temporali  Nebbia  Neve Forte  Precipitazioni Forti  Vento > 20 kt
SIGMETs :   Varie  Temporali  Ghiacco  Turbolenza  Onda orograficha  Ceneri Vulcaniche






- Altitudine del aeroporto : 1900 ft
- Codice IATA : FEZ


GMFF - Fez Saiss

ULTIMO METAR :
  • 161030Z 02004KT 340V060 CAVOK 17/08 Q1007 NOSIG

METARs OBSOLETI :
  • 161000Z 05003KT 350V160 CAVOK 17/07 Q1007 NOSIG
  • 160930Z 11003KT 070V220 CAVOK 15/06 Q1007 NOSIG
  • 160900Z 13004KT 090V180 CAVOK 12/05 Q1008 NOSIG
  • 160830Z 13004KT 090V180 CAVOK 12/05 Q1008 NOSIG
  • 160800Z 15006KT CAVOK 11/04 Q1008 NOSIG

TAF TAF GMFF
Valido dal 16 a 06 ore il 17 a 12 ore UTC


160500Z 1606/1712 18006KT CAVOK
BECMG 1611/1615 26018G28KT SCT020 BKN080
BECMG 1617/1621 4000 SHRA SCT010 BKN020 BKN080



MetMap, La meteo Aeronautica in un colpo d'occhio ! - Copyright ORBIFLY Dicembre 2007 - Disclaimer

ORBIFLY MET'MAP TEAM :

Programmazione e sviluppo : Alexandra Zaïnal
Concezione : Baudouin d'Aumeries
Aiuto per la programmazione : Marc-Olivier Méhu
Supporto tecnico e logistico : Manuel Goepfert
Aiuto per la traduzione : Arnaldo La Scala

Contatto : metmap@orbifly.com




FONTI E CREDITI :

   NOAA